createdAt,value
2023-04-17T00:00:24.035Z,-294.29
2023-04-17T00:01:27.357Z,-281.49
2023-04-17T00:02:30.621Z,-314.77
2023-04-17T00:03:33.920Z,-301.97
2023-04-17T00:04:37.214Z,-327.57
2023-04-17T00:05:40.508Z,-273.81
2023-04-17T00:06:43.970Z,-301.97
2023-04-17T00:07:47.265Z,-301.97
2023-04-17T00:08:50.536Z,-232.85
2023-04-17T00:09:53.837Z,-294.29
2023-04-17T00:10:57.137Z,-281.49
2023-04-17T00:12:00.412Z,-327.57
2023-04-17T00:13:03.703Z,-225.17
2023-04-17T00:14:06.026Z,-232.85
2023-04-17T00:15:09.327Z,-240.53
2023-04-17T00:16:12.610Z,-301.97
2023-04-17T00:17:15.905Z,-261.01
2023-04-17T00:18:19.197Z,-197.01
2023-04-17T00:19:22.486Z,-220.05
2023-04-17T00:20:24.806Z,-184.21
2023-04-17T00:21:27.107Z,-197.01
2023-04-17T00:22:29.458Z,-197.01
2023-04-17T00:23:31.736Z,-220.05
2023-04-17T00:24:35.042Z,-163.73
2023-04-17T00:25:38.300Z,-168.85
2023-04-17T00:26:41.600Z,-163.73
2023-04-17T00:27:44.891Z,-168.85
2023-04-17T00:28:48.187Z,-168.85
2023-04-17T00:29:51.475Z,-135.57
2023-04-17T00:31:58.062Z,-120.21
2023-04-17T00:33:01.362Z,-120.21
2023-04-17T00:34:04.656Z,-140.69
2023-04-17T00:35:07.948Z,-127.89
2023-04-17T00:36:11.234Z,-84.37
2023-04-17T00:37:13.549Z,-76.69
2023-04-17T00:38:16.826Z,-112.53
2023-04-17T00:39:20.124Z,-76.69
2023-04-17T00:40:23.414Z,-48.53
2023-04-17T00:41:26.726Z,-92.05
2023-04-17T00:42:29.991Z,-84.37
2023-04-17T00:43:33.292Z,-71.57
2023-04-17T00:44:36.587Z,-76.69
2023-04-17T00:45:38.892Z,-63.89
2023-04-17T00:46:41.241Z,10.36
2023-04-17T00:47:43.503Z,-63.89
2023-04-17T00:48:45.826Z,-12.69
2023-04-17T00:49:49.137Z,-48.53
2023-04-17T00:50:52.400Z,-48.53
2023-04-17T00:51:55.712Z,61.56
2023-04-17T00:52:59.006Z,-12.69
2023-04-17T00:54:02.337Z,30.84
2023-04-17T00:55:05.579Z,18.04
2023-04-17T00:56:08.875Z,92.28
2023-04-17T00:57:12.178Z,25.72
2023-04-17T00:58:15.457Z,25.72
2023-04-17T00:59:18.753Z,10.36
2023-04-17T01:00:22.020Z,46.2
2023-04-17T01:01:25.329Z,46.2
2023-04-17T01:02:27.641Z,38.52
2023-04-17T01:03:30.916Z,18.04
2023-04-17T01:04:34.256Z,69.24
2023-04-17T01:05:37.512Z,92.28
2023-04-17T01:06:40.812Z,25.72
2023-04-17T01:07:44.392Z,25.72
2023-04-17T01:08:47.718Z,115.32
2023-04-17T01:09:50.010Z,115.32
2023-04-17T01:10:52.333Z,92.28
2023-04-17T01:11:55.612Z,115.32
2023-04-17T01:12:57.931Z,143.48
2023-04-17T01:14:00.232Z,107.64
2023-04-17T01:15:03.517Z,120.44
2023-04-17T01:16:06.834Z,158.84
2023-04-17T01:17:10.115Z,128.12
2023-04-17T01:18:13.402Z,143.48
2023-04-17T01:19:16.687Z,107.64
2023-04-17T01:20:19.977Z,128.12
2023-04-17T01:21:23.265Z,151.16
2023-04-17T01:22:26.598Z,158.84
2023-04-17T01:23:29.861Z,158.84
2023-04-17T01:24:33.158Z,107.64
2023-04-17T01:25:36.442Z,166.52
2023-04-17T01:26:39.732Z,115.32
2023-04-17T01:27:42.046Z,158.84
2023-04-17T01:28:45.319Z,158.84
2023-04-17T01:29:48.633Z,128.12
2023-04-17T01:30:51.940Z,115.32
2023-04-17T01:31:55.216Z,143.48
2023-04-17T01:32:58.486Z,128.12
2023-04-17T01:34:01.784Z,128.12
2023-04-17T01:35:04.112Z,143.48
2023-04-17T01:36:06.416Z,120.44
2023-04-17T01:37:08.725Z,220.28
2023-04-17T01:38:11.029Z,197.24
2023-04-17T01:39:14.307Z,235.64
2023-04-17T01:40:17.618Z,143.48
2023-04-17T01:41:20.900Z,197.24
2023-04-17T01:42:24.202Z,120.44
2023-04-17T01:43:27.500Z,158.84
2023-04-17T01:44:30.772Z,128.12
2023-04-17T01:45:34.062Z,84.6
2023-04-17T01:46:37.374Z,181.88
2023-04-17T01:47:40.650Z,107.64
2023-04-17T01:48:43.963Z,99.96
2023-04-17T01:49:47.635Z,120.44
2023-04-17T01:50:50.931Z,120.44
2023-04-17T01:51:53.249Z,220.28
2023-04-17T01:52:56.532Z,143.48
2023-04-17T01:53:59.816Z,174.2
2023-04-17T01:55:03.115Z,174.2
2023-04-17T01:56:06.393Z,174.2
2023-04-17T01:57:09.693Z,151.16
2023-04-17T01:58:12.978Z,204.92
2023-04-17T01:59:15.309Z,2.56
2023-04-17T02:00:17.628Z,197.24
2023-04-17T02:01:19.927Z,204.92
2023-04-17T02:02:22.235Z,212.6
2023-04-17T02:03:25.533Z,174.2
2023-04-17T02:04:28.811Z,276.6
2023-04-17T02:05:32.102Z,120.44
2023-04-17T02:06:35.390Z,189.56
2023-04-17T02:07:38.706Z,253.56
2023-04-17T02:08:41.990Z,243.32
2023-04-17T02:09:45.296Z,227.96
2023-04-17T02:10:48.559Z,212.6
2023-04-17T02:11:51.844Z,181.88
2023-04-17T02:12:55.141Z,253.56
2023-04-17T02:13:58.452Z,253.56
2023-04-17T02:15:01.743Z,212.6
2023-04-17T02:16:04.049Z,181.88
2023-04-17T02:17:07.333Z,174.2
2023-04-17T02:18:10.633Z,189.56
2023-04-17T02:19:13.925Z,253.56
2023-04-17T02:20:17.206Z,197.24
2023-04-17T02:21:20.508Z,220.28
2023-04-17T02:22:23.796Z,174.2
2023-04-17T02:23:26.109Z,181.88
2023-04-17T02:24:28.435Z,174.2
2023-04-17T02:25:31.693Z,212.6
2023-04-17T02:26:34.033Z,253.56
2023-04-17T02:27:36.316Z,235.64
2023-04-17T02:28:39.630Z,204.92
2023-04-17T02:29:42.906Z,189.56
2023-04-17T02:30:46.204Z,204.92
2023-04-17T02:31:49.475Z,243.32
2023-04-17T02:32:52.776Z,276.6
2023-04-17T02:33:56.068Z,204.92
2023-04-17T02:34:59.369Z,151.16
2023-04-17T02:36:02.662Z,253.56
2023-04-17T02:37:05.980Z,212.6
2023-04-17T02:38:09.247Z,220.28
2023-04-17T02:39:12.529Z,212.6
2023-04-17T02:40:15.844Z,284.28
2023-04-17T02:41:18.123Z,243.32
2023-04-17T02:42:21.434Z,299.64
2023-04-17T02:43:24.727Z,220.28
2023-04-17T02:44:28.000Z,220.28
2023-04-17T02:45:31.310Z,220.28
2023-04-17T02:46:34.597Z,243.32
2023-04-17T02:47:37.884Z,235.64
2023-04-17T02:48:40.219Z,268.92
2023-04-17T02:49:42.512Z,235.64
2023-04-17T02:50:45.806Z,253.56
2023-04-17T02:51:49.094Z,253.56
2023-04-17T02:52:52.376Z,276.6
2023-04-17T02:53:55.682Z,322.68
2023-04-17T02:54:58.968Z,253.56
2023-04-17T02:56:02.288Z,253.56
2023-04-17T02:57:05.565Z,-291.72
2023-04-17T02:58:08.850Z,299.64
2023-04-17T02:59:12.141Z,315
2023-04-17T03:00:15.421Z,276.6
2023-04-17T03:01:18.726Z,268.92
2023-04-17T03:02:22.020Z,261.24
2023-04-17T03:03:24.320Z,299.64
2023-04-17T03:04:27.607Z,-325
2023-04-17T03:05:30.914Z,322.68
2023-04-17T03:06:34.201Z,284.28
2023-04-17T03:07:37.499Z,220.28
2023-04-17T03:08:40.772Z,307.32
2023-04-17T03:09:44.076Z,315
2023-04-17T03:10:46.387Z,268.92
2023-04-17T03:11:48.704Z,253.56
2023-04-17T03:12:51.005Z,276.6
2023-04-17T03:13:53.331Z,322.68
2023-04-17T03:14:56.602Z,276.6
2023-04-17T03:15:59.900Z,307.32
2023-04-17T03:17:03.188Z,284.28
2023-04-17T03:18:06.488Z,-307.08
2023-04-17T03:19:09.796Z,315
2023-04-17T03:20:13.082Z,299.64
2023-04-17T03:21:16.376Z,-307.08
2023-04-17T03:22:19.654Z,-299.4
2023-04-17T03:23:22.944Z,-325
2023-04-17T03:24:26.238Z,307.32
2023-04-17T03:25:29.529Z,284.28
2023-04-17T03:26:32.817Z,322.68
2023-04-17T03:27:35.133Z,299.64
2023-04-17T03:28:38.413Z,-325
2023-04-17T03:29:41.724Z,299.64
2023-04-17T03:30:45.264Z,315
2023-04-17T03:31:47.573Z,322.68
2023-04-17T03:32:51.286Z,261.24
2023-04-17T03:33:54.618Z,276.6
2023-04-17T03:34:56.869Z,-307.08
2023-04-17T03:35:59.176Z,299.64
2023-04-17T03:37:01.474Z,-307.08
2023-04-17T03:38:03.794Z,315
2023-04-17T03:39:07.065Z,322.68
2023-04-17T03:41:13.659Z,315
2023-04-17T03:42:16.958Z,-261
2023-04-17T03:43:20.241Z,-268.68
2023-04-17T03:44:23.532Z,-317.32
2023-04-17T03:45:26.862Z,2.56
2023-04-17T03:46:30.182Z,-235.4
2023-04-17T03:47:33.409Z,322.68
2023-04-17T03:48:36.722Z,-284.04
2023-04-17T03:49:39.993Z,-291.72
2023-04-17T03:50:43.304Z,-276.36
2023-04-17T03:51:46.598Z,-299.4
2023-04-17T03:52:48.891Z,-276.36
2023-04-17T03:53:52.171Z,-276.36
2023-04-17T03:54:55.490Z,-276.36
2023-04-17T03:55:58.774Z,-276.36
2023-04-17T03:57:02.081Z,-235.4
2023-04-17T03:58:05.344Z,-209.8
2023-04-17T03:59:08.639Z,2.56
2023-04-17T04:00:10.954Z,-317.32
2023-04-17T04:01:13.258Z,-243.08
2023-04-17T04:02:16.560Z,-202.12
2023-04-17T04:03:18.870Z,-153.48
2023-04-17T04:04:21.175Z,-291.72
2023-04-17T04:05:24.489Z,-250.76
2023-04-17T04:06:27.742Z,-261
2023-04-17T04:07:31.028Z,-161.16
2023-04-17T04:08:34.340Z,-227.72
2023-04-17T04:09:37.627Z,-261
2023-04-17T04:10:40.932Z,-220.04
2023-04-17T04:11:44.220Z,-227.72
2023-04-17T04:12:47.507Z,-127.88
2023-04-17T04:13:50.821Z,-209.8
2023-04-17T04:14:54.098Z,-220.04
2023-04-17T04:15:57.388Z,-161.16
2023-04-17T04:17:00.692Z,-194.44
2023-04-17T04:18:02.985Z,-194.44
2023-04-17T04:19:06.262Z,-209.8
2023-04-17T04:20:09.571Z,-135.56
2023-04-17T04:21:12.866Z,-194.44
2023-04-17T04:22:16.178Z,-145.8
2023-04-17T04:23:19.451Z,-161.16
2023-04-17T04:24:22.737Z,-161.16
2023-04-17T04:25:25.039Z,-161.16
2023-04-17T04:26:27.347Z,-94.6
2023-04-17T04:27:29.680Z,-112.52
2023-04-17T04:28:32.001Z,-127.88
2023-04-17T04:29:35.300Z,-145.8
2023-04-17T04:30:38.560Z,-153.48
2023-04-17T04:31:41.874Z,-168.84
2023-04-17T04:32:45.141Z,-168.84
2023-04-17T04:33:48.688Z,-153.48
2023-04-17T04:34:51.968Z,-127.88
2023-04-17T04:35:55.264Z,-135.56
2023-04-17T04:36:58.553Z,-145.8
2023-04-17T04:38:01.845Z,-161.16
2023-04-17T04:39:05.134Z,-220.04
2023-04-17T04:40:08.426Z,-186.76
2023-04-17T04:41:11.715Z,-127.88
2023-04-17T04:42:14.062Z,-202.12
2023-04-17T04:43:17.323Z,-161.16
2023-04-17T04:44:20.617Z,-161.16
2023-04-17T04:45:23.903Z,-194.44
2023-04-17T04:46:27.199Z,-194.44
2023-04-17T04:47:30.492Z,-194.44
2023-04-17T04:48:33.777Z,-235.4
2023-04-17T04:49:36.095Z,-194.44
2023-04-17T04:50:38.429Z,-112.52
2023-04-17T04:51:40.703Z,-168.84
2023-04-17T04:52:43.012Z,-135.56
2023-04-17T04:53:46.358Z,-145.8
2023-04-17T04:54:49.591Z,-153.48
2023-04-17T04:55:52.907Z,-94.6
2023-04-17T04:56:56.185Z,-135.56
2023-04-17T04:57:59.485Z,-120.2
2023-04-17T04:59:02.774Z,-76.68
2023-04-17T05:00:06.077Z,-168.84
2023-04-17T05:01:09.372Z,-153.48
2023-04-17T05:02:12.653Z,-161.16
2023-04-17T05:03:15.941Z,-127.88
2023-04-17T05:04:19.225Z,-61.32
2023-04-17T05:05:22.512Z,-102.28
2023-04-17T05:06:24.830Z,-112.52
2023-04-17T05:07:28.137Z,-161.16
2023-04-17T05:08:31.433Z,-145.8
2023-04-17T05:09:34.721Z,-127.88
2023-04-17T05:10:37.999Z,-112.52
2023-04-17T05:11:41.277Z,-135.56
2023-04-17T05:12:44.601Z,-135.56
2023-04-17T05:13:46.925Z,-69
2023-04-17T05:14:49.214Z,-69
2023-04-17T05:15:51.515Z,-120.2
2023-04-17T05:16:53.808Z,-135.56
2023-04-17T05:17:57.122Z,-135.56
2023-04-17T05:19:00.400Z,-220.04
2023-04-17T05:20:03.708Z,-220.04
2023-04-17T05:21:07.004Z,-145.8
2023-04-17T05:22:10.292Z,-94.6
2023-04-17T05:23:13.592Z,-86.92
2023-04-17T05:24:16.918Z,-76.68
2023-04-17T05:25:20.190Z,-120.2
2023-04-17T05:26:23.449Z,-61.32
2023-04-17T05:27:26.754Z,-120.2
2023-04-17T05:28:30.035Z,-86.92
2023-04-17T05:29:33.376Z,-86.92
2023-04-17T05:30:35.655Z,-94.6
2023-04-17T05:31:38.937Z,-127.88
2023-04-17T05:32:42.213Z,-61.32
2023-04-17T05:33:45.517Z,-76.68
2023-04-17T05:34:49.069Z,-94.6
2023-04-17T05:35:52.347Z,-76.68
2023-04-17T05:36:55.659Z,-112.52
2023-04-17T05:37:57.978Z,-127.88
2023-04-17T05:39:00.259Z,-94.6
2023-04-17T05:40:02.583Z,-94.6
2023-04-17T05:41:04.880Z,-76.68
2023-04-17T05:42:08.170Z,-43.4
2023-04-17T05:43:11.462Z,-51.08
2023-04-17T05:44:14.761Z,-69
2023-04-17T05:45:18.084Z,-25.48
2023-04-17T05:46:21.355Z,0.13
2023-04-17T05:47:24.644Z,-76.68
2023-04-17T05:48:28.132Z,-61.32
2023-04-17T05:49:31.242Z,-76.68
2023-04-17T05:50:34.547Z,-86.92
2023-04-17T05:51:37.899Z,-25.48
2023-04-17T05:52:41.107Z,-112.52
2023-04-17T05:53:44.423Z,-43.4
2023-04-17T05:54:46.724Z,-76.68
2023-04-17T05:55:50.045Z,-94.6
2023-04-17T05:56:53.282Z,-43.4
2023-04-17T05:57:56.588Z,-102.28
2023-04-17T05:58:59.869Z,-35.72
2023-04-17T06:00:03.296Z,-102.28
2023-04-17T06:01:06.613Z,-43.4
2023-04-17T06:02:08.788Z,-25.48
2023-04-17T06:04:14.389Z,-43.4
2023-04-17T06:05:17.656Z,-127.88
2023-04-17T06:06:20.947Z,-86.92
2023-04-17T06:07:23.274Z,-86.92
2023-04-17T06:08:25.591Z,-35.72
2023-04-17T06:09:28.882Z,-25.48
2023-04-17T06:10:32.175Z,-61.32
2023-04-17T06:11:35.455Z,-94.6
2023-04-17T06:12:38.762Z,-76.68
2023-04-17T06:13:42.104Z,-35.72
2023-04-17T06:14:45.335Z,-61.32
2023-04-17T06:15:48.630Z,-43.4
2023-04-17T06:16:52.531Z,-94.6
2023-04-17T06:17:55.810Z,-43.4
2023-04-17T06:18:59.199Z,-35.72
2023-04-17T06:20:02.407Z,-43.4
2023-04-17T06:21:05.691Z,7.81
2023-04-17T06:22:08.006Z,-43.4
2023-04-17T06:23:11.299Z,-25.48
2023-04-17T06:24:14.590Z,-156.03
2023-04-17T06:25:17.922Z,79.47
2023-04-17T06:26:21.156Z,-163.73
2023-04-17T06:27:24.456Z,143.48
2023-04-17T06:28:27.844Z,253.56
2023-04-17T06:29:30.058Z,299.64
2023-04-17T06:30:32.400Z,-284.04
2023-04-17T06:31:34.691Z,-243.08
2023-04-17T06:32:36.998Z,-120.2
2023-04-17T06:33:40.304Z,-161.16
2023-04-17T06:34:43.639Z,-145.8
2023-04-17T06:35:46.882Z,-43.4
2023-04-17T06:36:50.177Z,2.56
2023-04-17T06:37:53.462Z,-76.68
2023-04-17T06:38:56.751Z,-25.48
2023-04-17T06:40:00.061Z,-76.68
2023-04-17T06:41:03.407Z,-51.08
2023-04-17T06:42:06.636Z,322.56
2023-04-17T06:43:10.112Z,-112.52
2023-04-17T06:44:13.268Z,-43.4
2023-04-17T06:45:16.510Z,-17.8
2023-04-17T06:46:18.824Z,-25.48
2023-04-17T06:47:22.135Z,33.41
2023-04-17T06:48:25.462Z,-17.8
2023-04-17T06:49:28.683Z,7.81
2023-04-17T06:50:31.993Z,-17.8
2023-04-17T06:51:35.273Z,-61.32
2023-04-17T06:52:38.667Z,-61.32
2023-04-17T06:53:40.900Z,-94.6
2023-04-17T06:54:43.174Z,15.49
2023-04-17T06:55:45.578Z,-43.4
2023-04-17T06:56:47.795Z,-43.4
2023-04-17T06:57:51.190Z,-17.8
2023-04-17T06:58:54.389Z,7.81
2023-04-17T06:59:57.672Z,59.01
2023-04-17T07:01:00.976Z,-76.68
2023-04-17T07:02:04.290Z,-43.4
2023-04-17T07:03:06.578Z,-69
2023-04-17T07:04:09.866Z,69.25
2023-04-17T07:05:13.162Z,-25.48
2023-04-17T07:06:16.456Z,25.73
2023-04-17T07:07:19.731Z,15.49
2023-04-17T07:08:23.025Z,102.53
2023-04-17T07:09:26.328Z,15.49
2023-04-17T07:10:29.611Z,25.73
2023-04-17T07:11:32.905Z,-10.12
2023-04-17T07:12:36.261Z,94.85
2023-04-17T07:13:39.504Z,76.93
2023-04-17T07:14:42.783Z,102.53
2023-04-17T07:15:46.082Z,51.33
2023-04-17T07:16:48.395Z,174.21
2023-04-17T07:17:50.699Z,120.45
2023-04-17T07:18:53.012Z,112.77
2023-04-17T07:19:55.311Z,112.77
2023-04-17T07:20:57.638Z,87.17
2023-04-17T07:22:00.905Z,210.05
2023-04-17T07:23:04.197Z,227.97
2023-04-17T07:24:07.502Z,184.45
2023-04-17T07:25:10.773Z,148.61
2023-04-17T07:26:14.076Z,156.29
2023-04-17T07:27:17.379Z,156.29
2023-04-17T07:28:20.673Z,220.29
2023-04-17T07:29:23.953Z,166.53
2023-04-17T07:30:27.237Z,220.29
2023-04-17T07:31:30.531Z,220.29
2023-04-17T07:32:33.971Z,2.56
2023-04-17T07:33:37.132Z,2.56
2023-04-17T07:34:39.442Z,291.97
2023-04-17T07:35:42.726Z,245.89
2023-04-17T07:36:46.079Z,256.13
2023-04-17T07:37:49.315Z,302.21
2023-04-17T07:38:53.101Z,256.13
2023-04-17T07:39:56.413Z,256.13
2023-04-17T07:40:59.676Z,256.13
2023-04-17T07:42:02.004Z,266.37
2023-04-17T07:43:04.300Z,-317.31
2023-04-17T07:44:06.632Z,184.45
2023-04-17T07:45:08.921Z,302.21
2023-04-17T07:46:12.220Z,291.97
2023-04-17T07:47:15.485Z,291.97
2023-04-17T07:48:18.818Z,266.37
2023-04-17T07:49:22.077Z,291.97
2023-04-17T07:50:25.371Z,-296.83
2023-04-17T07:51:28.708Z,-278.91
2023-04-17T07:52:31.986Z,320.13
2023-04-17T07:53:35.255Z,-317.31
2023-04-17T07:54:38.558Z,-307.07
2023-04-17T07:55:41.855Z,-324.99
2023-04-17T07:56:45.143Z,-278.91
2023-04-17T07:57:48.454Z,-296.83
2023-04-17T07:58:50.904Z,-307.07
2023-04-17T07:59:54.156Z,-260.99
2023-04-17T08:00:57.301Z,-307.07
2023-04-17T08:02:00.763Z,-268.67
2023-04-17T08:03:04.160Z,-240.51
2023-04-17T08:04:07.373Z,-250.75
2023-04-17T08:05:10.613Z,-268.67
2023-04-17T08:06:12.908Z,-296.83
2023-04-17T08:07:15.115Z,-260.99
2023-04-17T08:08:18.407Z,-250.75
2023-04-17T08:09:20.718Z,-230.27
2023-04-17T08:10:23.014Z,-212.35
2023-04-17T08:11:26.330Z,-173.95
2023-04-17T08:12:29.596Z,-230.27
2023-04-17T08:13:32.898Z,-173.95
2023-04-17T08:14:36.187Z,-163.71
2023-04-17T08:15:39.471Z,-222.59
2023-04-17T08:16:42.761Z,-184.19
2023-04-17T08:17:46.064Z,-202.11
2023-04-17T08:18:49.365Z,-240.51
2023-04-17T08:19:52.668Z,-184.19
2023-04-17T08:20:55.977Z,-194.43
2023-04-17T08:21:59.385Z,-194.43
2023-04-17T08:23:02.583Z,-156.03
2023-04-17T08:24:04.851Z,-184.19
2023-04-17T08:25:08.118Z,-173.95
2023-04-17T08:26:11.447Z,-173.95
2023-04-17T08:27:14.714Z,-194.43
2023-04-17T08:28:17.999Z,-125.31
2023-04-17T08:29:21.306Z,-156.03
2023-04-17T08:30:24.578Z,-194.43
2023-04-17T08:31:26.909Z,2.56
2023-04-17T08:32:29.193Z,-173.95
2023-04-17T08:33:31.512Z,-115.07
2023-04-17T08:34:33.835Z,-115.07
2023-04-17T08:35:37.156Z,-163.71
2023-04-17T08:36:40.400Z,-135.55
2023-04-17T08:37:43.715Z,-194.43
2023-04-17T08:38:47.459Z,2.56
2023-04-17T08:39:50.782Z,-194.43
2023-04-17T08:40:54.039Z,-212.35
2023-04-17T08:41:57.413Z,-163.71
2023-04-17T08:43:00.826Z,-212.35
2023-04-17T08:44:04.097Z,2.56
2023-04-17T08:45:07.369Z,-163.71
2023-04-17T08:46:10.662Z,-135.55
2023-04-17T08:47:13.920Z,-168.82
2023-04-17T08:48:16.297Z,-56.21
2023-04-17T08:49:19.537Z,-284.04
2023-04-17T08:50:22.673Z,-61.32
2023-04-17T08:51:25.967Z,69.25
2023-04-17T08:52:29.278Z,202.37
2023-04-17T08:53:32.548Z,220.29
2023-04-17T08:54:35.839Z,-307.07
2023-04-17T08:55:38.163Z,-289.15
2023-04-17T08:56:40.477Z,-268.67
2023-04-17T08:57:42.781Z,-240.51
2023-04-17T08:58:45.071Z,-268.67
2023-04-17T08:59:48.379Z,-230.27
2023-04-17T09:00:51.685Z,-268.67
2023-04-17T09:01:54.976Z,-194.43
2023-04-17T09:02:58.262Z,-145.79
2023-04-17T09:04:01.557Z,-212.35
2023-04-17T09:05:04.843Z,-173.95
2023-04-17T09:06:08.127Z,-173.95
2023-04-17T09:07:11.587Z,-125.31
2023-04-17T09:08:14.721Z,-97.15
2023-04-17T09:09:18.042Z,-66.43
2023-04-17T09:10:21.316Z,-28.02
2023-04-17T09:11:24.787Z,-197.01
2023-04-17T09:12:27.119Z,-307.08
2023-04-17T09:13:30.193Z,-61.32
2023-04-17T09:14:33.486Z,69.25
2023-04-17T09:15:36.779Z,184.45
2023-04-17T09:16:40.091Z,256.13
2023-04-17T09:17:43.379Z,284.29
2023-04-17T09:18:46.653Z,-260.99
2023-04-17T09:19:48.968Z,-268.67
2023-04-17T09:20:51.286Z,-268.67
2023-04-17T09:21:53.584Z,-202.11
2023-04-17T09:22:55.887Z,-115.07
2023-04-17T09:23:59.190Z,-230.27
2023-04-17T09:25:02.488Z,-184.19
2023-04-17T09:26:05.771Z,-173.95
2023-04-17T09:27:09.059Z,-66.43
2023-04-17T09:28:12.372Z,-125.31
2023-04-17T09:29:15.661Z,-97.15
2023-04-17T09:30:19.054Z,-17.79
2023-04-17T09:31:22.236Z,-86.91
2023-04-17T09:32:25.532Z,-76.67
2023-04-17T09:33:28.809Z,-17.79
2023-04-17T09:34:32.118Z,-28.03
2023-04-17T09:35:35.405Z,-76.67
2023-04-17T09:36:37.696Z,2.7
2023-04-17T09:37:40.990Z,-17.79
2023-04-17T09:38:44.284Z,51.34
2023-04-17T09:39:47.637Z,51.34
2023-04-17T09:40:50.925Z,23.18
2023-04-17T09:41:54.217Z,41.1
2023-04-17T09:42:57.512Z,23.18
2023-04-17T09:43:59.820Z,-17.79
2023-04-17T09:45:02.142Z,-38.27
2023-04-17T09:46:04.588Z,2.56
2023-04-17T09:47:06.868Z,-48.51
2023-04-17T09:48:10.213Z,-48.51
2023-04-17T09:49:13.502Z,-97.15
2023-04-17T09:50:16.753Z,-17.79
2023-04-17T09:51:19.935Z,-115.07
2023-04-17T09:52:23.304Z,2.56
2023-04-17T09:53:26.522Z,-17.79
2023-04-17T09:54:29.802Z,-38.27
2023-04-17T09:55:33.085Z,102.54
2023-04-17T09:56:36.392Z,-7.55
2023-04-17T09:57:39.666Z,12.94
2023-04-17T09:58:43.052Z,-28.03
2023-04-17T09:59:46.266Z,-56.19
2023-04-17T10:00:48.690Z,-48.51
2023-04-17T10:01:52.010Z,-38.27
2023-04-17T10:02:55.282Z,-97.15
2023-04-17T10:03:58.487Z,-28.03
2023-04-17T10:05:01.739Z,2.7
2023-04-17T10:06:05.041Z,12.94
2023-04-17T10:07:08.315Z,12.94
2023-04-17T10:08:10.635Z,23.18
2023-04-17T10:09:12.943Z,-38.27
2023-04-17T10:10:15.236Z,-7.55
2023-04-17T10:11:17.550Z,2.7
2023-04-17T10:12:20.842Z,23.18
2023-04-17T10:13:24.145Z,2.7
2023-04-17T10:14:27.431Z,41.1
2023-04-17T10:15:30.717Z,41.1
2023-04-17T10:16:34.003Z,41.1
2023-04-17T10:17:37.317Z,82.06
2023-04-17T10:18:40.589Z,-28.03
2023-04-17T10:19:43.908Z,41.1
2023-04-17T10:20:47.174Z,33.42
2023-04-17T10:21:50.856Z,2.7
2023-04-17T10:22:54.128Z,-7.55
2023-04-17T10:23:57.434Z,51.34
2023-04-17T10:24:59.761Z,123.02
2023-04-17T10:26:03.130Z,82.06
2023-04-17T10:27:06.419Z,184.46
2023-04-17T10:28:09.709Z,71.82
2023-04-17T10:29:13.027Z,51.34
2023-04-17T10:30:16.308Z,23.18
2023-04-17T10:31:19.631Z,-17.79
2023-04-17T10:32:21.879Z,-28.03
2023-04-17T10:33:24.134Z,-7.55
2023-04-17T10:34:26.425Z,12.94
2023-04-17T10:35:29.712Z,51.34
2023-04-17T10:37:35.332Z,82.06
2023-04-17T10:38:37.710Z,82.06
2023-04-17T10:39:40.010Z,51.34
2023-04-17T10:40:43.466Z,-48.51
2023-04-17T10:41:46.632Z,-48.51
2023-04-17T10:42:49.915Z,12.94
2023-04-17T10:43:53.255Z,-38.27
2023-04-17T10:44:56.528Z,-66.43
2023-04-17T10:45:59.888Z,-17.79
2023-04-17T10:48:06.285Z,-66.43
2023-04-17T10:49:09.688Z,-86.91
2023-04-17T10:50:13.073Z,-17.79
2023-04-17T10:51:16.323Z,-56.19
2023-04-17T10:52:19.568Z,-66.43
2023-04-17T10:53:21.945Z,2.56
2023-04-17T10:54:25.205Z,-156.03
2023-04-17T10:55:28.528Z,-125.31
2023-04-17T10:56:31.818Z,-156.03
2023-04-17T10:57:35.113Z,-97.15
2023-04-17T10:58:38.405Z,-125.31
2023-04-17T10:59:41.634Z,-97.15
2023-04-17T11:00:45.045Z,-125.31
2023-04-17T11:01:47.225Z,-107.39
2023-04-17T11:02:49.573Z,-66.43
2023-04-17T11:03:52.851Z,-97.15
2023-04-17T11:04:55.229Z,-56.19
2023-04-17T11:05:57.430Z,-56.19
2023-04-17T11:07:00.711Z,-66.43
2023-04-17T11:08:04.096Z,-76.67
2023-04-17T11:09:07.401Z,-56.19
2023-04-17T11:10:10.653Z,-76.67
2023-04-17T11:11:13.849Z,-56.19
2023-04-17T11:12:17.289Z,-76.67
2023-04-17T11:13:20.503Z,-66.43
2023-04-17T11:14:23.774Z,23.18
2023-04-17T11:15:27.007Z,-97.15
2023-04-17T11:16:30.270Z,-107.39
2023-04-17T11:17:33.709Z,-76.67
2023-04-17T11:18:36.904Z,-145.79
2023-04-17T11:19:39.310Z,-173.95
2023-04-17T11:20:42.625Z,-97.15
2023-04-17T11:21:45.994Z,-115.07
2023-04-17T11:22:49.197Z,-145.79
2023-04-17T11:23:52.384Z,-66.43
2023-04-17T11:24:55.681Z,-156.03
2023-04-17T11:25:58.985Z,-107.39
2023-04-17T11:27:01.342Z,-107.39
2023-04-17T11:28:03.575Z,-76.67
2023-04-17T11:29:05.981Z,-115.07
2023-04-17T11:30:08.348Z,-194.43
2023-04-17T11:31:11.455Z,-135.55
2023-04-17T11:32:14.780Z,-135.55
2023-04-17T11:33:18.025Z,-135.55
2023-04-17T11:34:21.345Z,-156.03
2023-04-17T11:35:24.585Z,-145.79
2023-04-17T11:36:27.909Z,-173.95
2023-04-17T11:37:31.166Z,-145.79
2023-04-17T11:38:34.584Z,-156.03
2023-04-17T11:39:37.780Z,-135.55
2023-04-17T11:40:41.062Z,-135.55
2023-04-17T11:41:44.346Z,-56.19
2023-04-17T11:42:47.628Z,-86.91
2023-04-17T11:43:49.968Z,-76.67
2023-04-17T11:44:53.244Z,-135.55
2023-04-17T11:45:56.536Z,-97.15
2023-04-17T11:46:59.832Z,2.56
2023-04-17T11:48:03.128Z,-156.03
2023-04-17T11:49:06.423Z,-115.07
2023-04-17T11:50:09.709Z,-86.91
2023-04-17T11:51:12.034Z,-17.79
2023-04-17T11:52:14.317Z,-28.03
2023-04-17T11:53:17.616Z,41.1
2023-04-17T11:54:21.064Z,71.82
2023-04-17T11:55:23.361Z,23.18
2023-04-17T11:56:26.656Z,33.42
2023-04-17T11:57:29.932Z,33.42
2023-04-17T11:58:33.229Z,12.94
2023-04-17T11:59:36.529Z,-48.51
2023-04-17T12:00:39.825Z,-17.79
2023-04-17T12:01:43.105Z,-97.15
2023-04-17T12:02:46.423Z,2.7
2023-04-17T12:03:49.693Z,-56.19
2023-04-17T12:04:52.999Z,-135.55
2023-04-17T12:05:56.273Z,-107.39
2023-04-17T12:06:59.575Z,-107.39
2023-04-17T12:08:02.870Z,-66.43
2023-04-17T12:09:05.148Z,-115.07
2023-04-17T12:10:08.473Z,12.94
2023-04-17T12:11:11.867Z,-86.91
2023-04-17T12:12:15.073Z,-56.19
2023-04-17T12:13:18.345Z,-145.79
2023-04-17T12:14:21.633Z,-76.67
2023-04-17T12:15:24.918Z,-76.67
2023-04-17T12:16:27.236Z,-56.19
2023-04-17T12:17:29.546Z,-97.15
2023-04-17T12:18:31.875Z,-97.15
2023-04-17T12:19:34.166Z,-76.67
2023-04-17T12:20:37.451Z,-28.03
2023-04-17T12:21:40.749Z,-66.43
2023-04-17T12:22:44.025Z,-38.27
2023-04-17T12:23:47.339Z,-115.07
2023-04-17T12:24:50.657Z,-173.95
2023-04-17T12:25:53.911Z,-17.79
2023-04-17T12:26:57.207Z,-76.67
2023-04-17T12:28:00.507Z,-97.15
2023-04-17T12:29:03.820Z,-97.15
2023-04-17T12:30:07.103Z,-17.79
2023-04-17T12:31:10.470Z,-28.03
2023-04-17T12:32:13.666Z,-48.51
2023-04-17T12:33:15.969Z,-115.07
2023-04-17T12:34:19.252Z,-76.67
2023-04-17T12:35:22.559Z,-66.43
2023-04-17T12:36:25.853Z,-56.19
2023-04-17T12:37:29.155Z,-66.43
2023-04-17T12:38:32.453Z,-97.15
2023-04-17T12:39:35.765Z,-115.07
2023-04-17T12:40:38.034Z,-107.39
2023-04-17T12:41:40.352Z,-76.67
2023-04-17T12:42:43.628Z,-115.07
2023-04-17T12:43:45.955Z,-28.03
2023-04-17T12:44:48.268Z,-17.79
2023-04-17T12:45:51.782Z,51.34
2023-04-17T12:46:55.128Z,12.94
2023-04-17T12:47:58.370Z,-17.79
2023-04-17T12:49:01.671Z,-56.19
2023-04-17T12:50:04.980Z,-28.03
2023-04-17T12:51:08.247Z,-38.27
2023-04-17T12:52:11.533Z,2.7
2023-04-17T12:53:14.839Z,-17.79
2023-04-17T12:54:18.121Z,-56.19
2023-04-17T12:55:21.395Z,-17.79
2023-04-17T12:56:24.691Z,-48.51
2023-04-17T12:57:27.995Z,-76.67
2023-04-17T12:58:30.308Z,-7.55
2023-04-17T12:59:33.625Z,-38.27
2023-04-17T13:00:36.931Z,-76.67
2023-04-17T13:01:40.217Z,12.94
2023-04-17T13:02:43.470Z,-115.07
2023-04-17T13:03:46.773Z,-115.07
2023-04-17T13:04:50.041Z,-48.51
2023-04-17T13:05:52.362Z,-56.19
2023-04-17T13:06:54.667Z,-56.19
2023-04-17T13:07:56.979Z,-38.27
2023-04-17T13:08:59.287Z,33.42
2023-04-17T13:10:02.567Z,-56.19
2023-04-17T13:11:05.864Z,-38.27
2023-04-17T13:12:09.148Z,-66.43